sensor_id;sensor_type;location;lat;lon;timestamp;temperature;humidity
4556;DHT22;2290;48.674;9.018;2023-04-24T00:00:30;11.30;99.90
4556;DHT22;2290;48.674;9.018;2023-04-24T00:02:56;11.40;99.90
4556;DHT22;2290;48.674;9.018;2023-04-24T00:05:24;11.40;99.90
4556;DHT22;2290;48.674;9.018;2023-04-24T00:07:50;11.50;99.90
4556;DHT22;2290;48.674;9.018;2023-04-24T00:10:20;11.50;99.90
4556;DHT22;2290;48.674;9.018;2023-04-24T00:12:47;11.50;99.90
4556;DHT22;2290;48.674;9.018;2023-04-24T00:15:14;11.50;99.90
4556;DHT22;2290;48.674;9.018;2023-04-24T00:17:39;11.50;99.90
4556;DHT22;2290;48.674;9.018;2023-04-24T00:20:06;11.60;99.90
4556;DHT22;2290;48.674;9.018;2023-04-24T00:22:33;11.50;99.90
4556;DHT22;2290;48.674;9.018;2023-04-24T00:25:00;11.50;99.90
4556;DHT22;2290;48.674;9.018;2023-04-24T00:27:26;11.60;99.90
4556;DHT22;2290;48.674;9.018;2023-04-24T00:29:52;11.50;99.90
4556;DHT22;2290;48.674;9.018;2023-04-24T00:32:20;11.50;99.90
4556;DHT22;2290;48.674;9.018;2023-04-24T00:34:45;11.50;99.90
4556;DHT22;2290;48.674;9.018;2023-04-24T00:37:11;11.50;99.90
4556;DHT22;2290;48.674;9.018;2023-04-24T00:39:37;11.50;99.90
4556;DHT22;2290;48.674;9.018;2023-04-24T00:42:04;11.50;99.90
4556;DHT22;2290;48.674;9.018;2023-04-24T00:44:33;11.40;99.90
4556;DHT22;2290;48.674;9.018;2023-04-24T00:47:02;11.40;99.90
4556;DHT22;2290;48.674;9.018;2023-04-24T00:49:28;11.40;99.90
4556;DHT22;2290;48.674;9.018;2023-04-24T00:51:54;11.40;99.90
4556;DHT22;2290;48.674;9.018;2023-04-24T00:54:21;11.50;99.90
4556;DHT22;2290;48.674;9.018;2023-04-24T00:56:48;11.50;99.90
4556;DHT22;2290;48.674;9.018;2023-04-24T00:59:16;11.40;99.90
4556;DHT22;2290;48.674;9.018;2023-04-24T01:01:43;11.40;99.90
4556;DHT22;2290;48.674;9.018;2023-04-24T01:04:12;11.30;99.90
4556;DHT22;2290;48.674;9.018;2023-04-24T01:06:40;11.30;99.90
4556;DHT22;2290;48.674;9.018;2023-04-24T01:09:06;11.30;99.90
4556;DHT22;2290;48.674;9.018;2023-04-24T01:11:36;11.30;99.90
4556;DHT22;2290;48.674;9.018;2023-04-24T01:14:01;11.20;99.90
4556;DHT22;2290;48.674;9.018;2023-04-24T01:16:28;11.20;99.90
4556;DHT22;2290;48.674;9.018;2023-04-24T01:18:53;11.20;99.90
4556;DHT22;2290;48.674;9.018;2023-04-24T01:21:21;11.20;99.90
4556;DHT22;2290;48.674;9.018;2023-04-24T01:23:50;11.20;99.90
4556;DHT22;2290;48.674;9.018;2023-04-24T01:26:17;11.20;99.90
4556;DHT22;2290;48.674;9.018;2023-04-24T01:28:44;11.20;99.90
4556;DHT22;2290;48.674;9.018;2023-04-24T01:31:09;11.10;99.90
4556;DHT22;2290;48.674;9.018;2023-04-24T01:33:35;11.10;99.90
4556;DHT22;2290;48.674;9.018;2023-04-24T01:36:03;11.20;99.90
4556;DHT22;2290;48.674;9.018;2023-04-24T01:38:29;11.20;99.90
4556;DHT22;2290;48.674;9.018;2023-04-24T01:40:54;11.20;99.90
4556;DHT22;2290;48.674;9.018;2023-04-24T01:43:23;11.20;99.90
4556;DHT22;2290;48.674;9.018;2023-04-24T01:45:49;11.40;99.90
4556;DHT22;2290;48.674;9.018;2023-04-24T01:48:15;11.30;99.90
4556;DHT22;2290;48.674;9.018;2023-04-24T01:50:41;11.20;99.90
4556;DHT22;2290;48.674;9.018;2023-04-24T01:53:08;11.20;99.90
4556;DHT22;2290;48.674;9.018;2023-04-24T01:55:33;11.20;99.90
4556;DHT22;2290;48.674;9.018;2023-04-24T01:58:01;11.20;99.90
4556;DHT22;2290;48.674;9.018;2023-04-24T02:00:27;11.30;99.90
4556;DHT22;2290;48.674;9.018;2023-04-24T02:02:53;11.30;99.90
4556;DHT22;2290;48.674;9.018;2023-04-24T02:05:18;11.30;99.90
4556;DHT22;2290;48.674;9.018;2023-04-24T02:07:44;11.40;99.90
4556;DHT22;2290;48.674;9.018;2023-04-24T02:10:10;11.40;99.90
4556;DHT22;2290;48.674;9.018;2023-04-24T02:12:37;11.40;99.90
4556;DHT22;2290;48.674;9.018;2023-04-24T02:15:03;11.30;99.90
4556;DHT22;2290;48.674;9.018;2023-04-24T02:17:29;11.40;99.90
4556;DHT22;2290;48.674;9.018;2023-04-24T02:19:54;11.30;99.90
4556;DHT22;2290;48.674;9.018;2023-04-24T02:22:20;11.30;99.90
4556;DHT22;2290;48.674;9.018;2023-04-24T02:24:45;11.30;99.90
4556;DHT22;2290;48.674;9.018;2023-04-24T02:27:11;11.30;99.90
4556;DHT22;2290;48.674;9.018;2023-04-24T02:29:39;11.30;99.90
4556;DHT22;2290;48.674;9.018;2023-04-24T02:32:10;11.30;99.90
4556;DHT22;2290;48.674;9.018;2023-04-24T02:34:38;11.30;99.90
4556;DHT22;2290;48.674;9.018;2023-04-24T02:37:04;11.20;99.90
4556;DHT22;2290;48.674;9.018;2023-04-24T02:39:30;11.30;99.90
4556;DHT22;2290;48.674;9.018;2023-04-24T02:41:55;11.20;99.90
4556;DHT22;2290;48.674;9.018;2023-04-24T02:44:21;11.30;99.90
4556;DHT22;2290;48.674;9.018;2023-04-24T02:46:47;11.30;99.90
4556;DHT22;2290;48.674;9.018;2023-04-24T02:49:13;11.30;99.90
4556;DHT22;2290;48.674;9.018;2023-04-24T02:51:39;11.30;99.90
4556;DHT22;2290;48.674;9.018;2023-04-24T02:54:07;11.40;99.90
4556;DHT22;2290;48.674;9.018;2023-04-24T02:56:33;11.30;99.90
4556;DHT22;2290;48.674;9.018;2023-04-24T02:58:59;11.20;99.90
4556;DHT22;2290;48.674;9.018;2023-04-24T03:01:25;11.30;99.90
4556;DHT22;2290;48.674;9.018;2023-04-24T03:03:51;11.20;99.90
4556;DHT22;2290;48.674;9.018;2023-04-24T03:06:17;11.20;99.90
4556;DHT22;2290;48.674;9.018;2023-04-24T03:08:44;11.20;99.90
4556;DHT22;2290;48.674;9.018;2023-04-24T03:11:09;11.30;99.90
4556;DHT22;2290;48.674;9.018;2023-04-24T03:13:35;11.20;99.90
4556;DHT22;2290;48.674;9.018;2023-04-24T03:16:01;11.20;99.90
4556;DHT22;2290;48.674;9.018;2023-04-24T03:18:27;11.10;99.90
4556;DHT22;2290;48.674;9.018;2023-04-24T03:20:54;11.00;99.90
4556;DHT22;2290;48.674;9.018;2023-04-24T03:23:21;10.90;99.90
4556;DHT22;2290;48.674;9.018;2023-04-24T03:25:46;10.80;99.90
4556;DHT22;2290;48.674;9.018;2023-04-24T03:28:13;10.90;99.90
4556;DHT22;2290;48.674;9.018;2023-04-24T03:30:39;11.00;99.90
4556;DHT22;2290;48.674;9.018;2023-04-24T03:33:05;10.90;99.90
4556;DHT22;2290;48.674;9.018;2023-04-24T03:35:30;10.80;99.90
4556;DHT22;2290;48.674;9.018;2023-04-24T03:37:56;10.90;99.90
4556;DHT22;2290;48.674;9.018;2023-04-24T03:40:23;10.90;99.90
4556;DHT22;2290;48.674;9.018;2023-04-24T03:42:49;10.90;99.90
4556;DHT22;2290;48.674;9.018;2023-04-24T03:45:16;10.90;99.90
4556;DHT22;2290;48.674;9.018;2023-04-24T03:47:41;10.90;99.90
4556;DHT22;2290;48.674;9.018;2023-04-24T03:50:07;10.90;99.90
4556;DHT22;2290;48.674;9.018;2023-04-24T03:52:33;10.80;99.90
4556;DHT22;2290;48.674;9.018;2023-04-24T03:54:58;10.80;99.90
4556;DHT22;2290;48.674;9.018;2023-04-24T03:57:24;10.70;99.90
4556;DHT22;2290;48.674;9.018;2023-04-24T03:59:50;10.80;99.90
4556;DHT22;2290;48.674;9.018;2023-04-24T04:02:15;10.80;99.90
4556;DHT22;2290;48.674;9.018;2023-04-24T04:04:41;10.80;99.90
4556;DHT22;2290;48.674;9.018;2023-04-24T04:07:06;10.80;99.90
4556;DHT22;2290;48.674;9.018;2023-04-24T04:09:33;10.80;99.90
4556;DHT22;2290;48.674;9.018;2023-04-24T04:11:59;10.80;99.90
4556;DHT22;2290;48.674;9.018;2023-04-24T04:14:26;10.70;99.90
4556;DHT22;2290;48.674;9.018;2023-04-24T04:16:51;10.70;99.90
4556;DHT22;2290;48.674;9.018;2023-04-24T04:19:17;10.80;99.90
4556;DHT22;2290;48.674;9.018;2023-04-24T04:21:44;10.80;99.90
4556;DHT22;2290;48.674;9.018;2023-04-24T04:24:11;10.80;99.90
4556;DHT22;2290;48.674;9.018;2023-04-24T04:26:37;10.80;99.90
4556;DHT22;2290;48.674;9.018;2023-04-24T04:29:03;10.70;99.90
4556;DHT22;2290;48.674;9.018;2023-04-24T04:31:29;10.70;99.90
4556;DHT22;2290;48.674;9.018;2023-04-24T04:33:55;10.50;99.90
4556;DHT22;2290;48.674;9.018;2023-04-24T04:36:21;10.10;99.90
4556;DHT22;2290;48.674;9.018;2023-04-24T04:38:46;9.80;99.90
4556;DHT22;2290;48.674;9.018;2023-04-24T04:41:13;9.60;99.90
4556;DHT22;2290;48.674;9.018;2023-04-24T04:43:38;9.60;99.90
4556;DHT22;2290;48.674;9.018;2023-04-24T04:46:05;9.50;99.90
4556;DHT22;2290;48.674;9.018;2023-04-24T04:48:31;9.50;99.90
4556;DHT22;2290;48.674;9.018;2023-04-24T04:50:59;9.40;99.90
4556;DHT22;2290;48.674;9.018;2023-04-24T04:53:24;9.40;99.90
4556;DHT22;2290;48.674;9.018;2023-04-24T04:55:51;9.40;99.90
4556;DHT22;2290;48.674;9.018;2023-04-24T04:58:16;9.50;99.90
4556;DHT22;2290;48.674;9.018;2023-04-24T05:00:43;9.40;99.90
4556;DHT22;2290;48.674;9.018;2023-04-24T05:03:09;9.30;99.90
4556;DHT22;2290;48.674;9.018;2023-04-24T05:05:35;9.30;99.90
4556;DHT22;2290;48.674;9.018;2023-04-24T05:08:00;9.40;99.90
4556;DHT22;2290;48.674;9.018;2023-04-24T05:10:26;9.40;99.90
4556;DHT22;2290;48.674;9.018;2023-04-24T05:12:51;9.30;99.90
4556;DHT22;2290;48.674;9.018;2023-04-24T05:15:17;9.20;99.90
4556;DHT22;2290;48.674;9.018;2023-04-24T05:17:43;9.20;99.90
4556;DHT22;2290;48.674;9.018;2023-04-24T05:20:08;9.20;99.90
4556;DHT22;2290;48.674;9.018;2023-04-24T05:22:35;9.30;99.90
4556;DHT22;2290;48.674;9.018;2023-04-24T05:25:02;9.30;99.90
4556;DHT22;2290;48.674;9.018;2023-04-24T05:27:29;9.30;99.90
4556;DHT22;2290;48.674;9.018;2023-04-24T05:29:54;9.30;99.90
4556;DHT22;2290;48.674;9.018;2023-04-24T05:32:20;9.30;99.90
4556;DHT22;2290;48.674;9.018;2023-04-24T05:34:46;9.40;99.90
4556;DHT22;2290;48.674;9.018;2023-04-24T05:37:11;9.60;99.90
4556;DHT22;2290;48.674;9.018;2023-04-24T05:39:37;9.60;99.90
4556;DHT22;2290;48.674;9.018;2023-04-24T05:42:03;9.60;99.90
4556;DHT22;2290;48.674;9.018;2023-04-24T05:44:30;9.70;99.90
4556;DHT22;2290;48.674;9.018;2023-04-24T05:46:55;9.70;99.90
4556;DHT22;2290;48.674;9.018;2023-04-24T05:49:22;9.80;99.90
4556;DHT22;2290;48.674;9.018;2023-04-24T05:51:47;9.80;99.90
4556;DHT22;2290;48.674;9.018;2023-04-24T05:54:13;9.80;99.90
4556;DHT22;2290;48.674;9.018;2023-04-24T05:56:39;9.80;99.90
4556;DHT22;2290;48.674;9.018;2023-04-24T05:59:05;9.90;99.90
4556;DHT22;2290;48.674;9.018;2023-04-24T06:01:30;10.00;99.90
4556;DHT22;2290;48.674;9.018;2023-04-24T06:03:57;10.10;99.90
4556;DHT22;2290;48.674;9.018;2023-04-24T06:06:23;9.90;99.90
4556;DHT22;2290;48.674;9.018;2023-04-24T06:08:49;10.00;99.90
4556;DHT22;2290;48.674;9.018;2023-04-24T06:11:15;10.00;99.90
4556;DHT22;2290;48.674;9.018;2023-04-24T06:13:41;10.10;99.90
4556;DHT22;2290;48.674;9.018;2023-04-24T06:16:06;10.30;99.90
4556;DHT22;2290;48.674;9.018;2023-04-24T06:18:32;10.40;99.90
4556;DHT22;2290;48.674;9.018;2023-04-24T06:20:59;10.60;99.90
4556;DHT22;2290;48.674;9.018;2023-04-24T06:23:24;10.70;99.90
4556;DHT22;2290;48.674;9.018;2023-04-24T06:25:51;10.80;99.90
4556;DHT22;2290;48.674;9.018;2023-04-24T06:28:16;10.90;99.90
4556;DHT22;2290;48.674;9.018;2023-04-24T06:30:44;11.10;99.90
4556;DHT22;2290;48.674;9.018;2023-04-24T06:33:09;11.20;99.90
4556;DHT22;2290;48.674;9.018;2023-04-24T06:35:36;11.30;99.90
4556;DHT22;2290;48.674;9.018;2023-04-24T06:38:03;11.40;99.90
4556;DHT22;2290;48.674;9.018;2023-04-24T06:40:29;11.40;99.90
4556;DHT22;2290;48.674;9.018;2023-04-24T06:42:55;11.30;99.90
4556;DHT22;2290;48.674;9.018;2023-04-24T06:45:23;11.20;99.90
4556;DHT22;2290;48.674;9.018;2023-04-24T06:47:48;11.30;99.90
4556;DHT22;2290;48.674;9.018;2023-04-24T06:50:14;11.50;99.90
4556;DHT22;2290;48.674;9.018;2023-04-24T06:52:40;11.50;99.90
4556;DHT22;2290;48.674;9.018;2023-04-24T06:55:06;11.40;99.90
4556;DHT22;2290;48.674;9.018;2023-04-24T06:57:32;11.30;99.90
4556;DHT22;2290;48.674;9.018;2023-04-24T06:59:58;11.20;99.90
4556;DHT22;2290;48.674;9.018;2023-04-24T07:02:24;10.90;99.90
4556;DHT22;2290;48.674;9.018;2023-04-24T07:04:50;10.80;99.90
4556;DHT22;2290;48.674;9.018;2023-04-24T07:07:15;10.60;99.90
4556;DHT22;2290;48.674;9.018;2023-04-24T07:09:41;10.50;99.90
4556;DHT22;2290;48.674;9.018;2023-04-24T07:12:08;10.40;99.90
4556;DHT22;2290;48.674;9.018;2023-04-24T07:14:34;10.40;99.90
4556;DHT22;2290;48.674;9.018;2023-04-24T07:17:00;10.10;99.90
4556;DHT22;2290;48.674;9.018;2023-04-24T07:19:26;9.90;99.90
4556;DHT22;2290;48.674;9.018;2023-04-24T07:21:52;9.80;99.90
4556;DHT22;2290;48.674;9.018;2023-04-24T07:24:18;9.80;99.90
4556;DHT22;2290;48.674;9.018;2023-04-24T07:26:44;9.90;99.90
4556;DHT22;2290;48.674;9.018;2023-04-24T07:29:12;10.00;99.90
4556;DHT22;2290;48.674;9.018;2023-04-24T07:31:38;10.20;99.90
4556;DHT22;2290;48.674;9.018;2023-04-24T07:34:04;10.30;99.90
4556;DHT22;2290;48.674;9.018;2023-04-24T07:36:29;10.50;99.90
4556;DHT22;2290;48.674;9.018;2023-04-24T07:38:55;10.60;99.90
4556;DHT22;2290;48.674;9.018;2023-04-24T07:41:25;10.70;99.90
4556;DHT22;2290;48.674;9.018;2023-04-24T07:43:50;10.80;99.90
4556;DHT22;2290;48.674;9.018;2023-04-24T07:46:16;10.70;99.90
4556;DHT22;2290;48.674;9.018;2023-04-24T07:48:42;10.80;99.90
4556;DHT22;2290;48.674;9.018;2023-04-24T07:51:08;10.90;99.90
4556;DHT22;2290;48.674;9.018;2023-04-24T07:53:36;11.00;99.90
4556;DHT22;2290;48.674;9.018;2023-04-24T07:56:01;10.60;99.90
4556;DHT22;2290;48.674;9.018;2023-04-24T07:58:27;10.40;99.90
4556;DHT22;2290;48.674;9.018;2023-04-24T08:00:52;10.40;99.90
4556;DHT22;2290;48.674;9.018;2023-04-24T08:03:19;10.40;99.90
4556;DHT22;2290;48.674;9.018;2023-04-24T08:05:45;10.50;99.90
4556;DHT22;2290;48.674;9.018;2023-04-24T08:08:11;10.60;99.90
4556;DHT22;2290;48.674;9.018;2023-04-24T08:10:38;10.70;99.90
4556;DHT22;2290;48.674;9.018;2023-04-24T08:13:04;10.70;99.90
4556;DHT22;2290;48.674;9.018;2023-04-24T08:15:29;10.80;99.90
4556;DHT22;2290;48.674;9.018;2023-04-24T08:17:55;10.80;99.90
4556;DHT22;2290;48.674;9.018;2023-04-24T08:20:22;10.90;99.90
4556;DHT22;2290;48.674;9.018;2023-04-24T08:22:49;10.80;99.90
4556;DHT22;2290;48.674;9.018;2023-04-24T08:25:14;10.90;99.90
4556;DHT22;2290;48.674;9.018;2023-04-24T08:27:40;11.00;99.90
4556;DHT22;2290;48.674;9.018;2023-04-24T08:30:07;11.10;99.90
4556;DHT22;2290;48.674;9.018;2023-04-24T08:32:32;11.30;99.90
4556;DHT22;2290;48.674;9.018;2023-04-24T08:34:59;11.40;99.90
4556;DHT22;2290;48.674;9.018;2023-04-24T08:37:26;11.20;99.90
4556;DHT22;2290;48.674;9.018;2023-04-24T08:39:53;11.00;99.90
4556;DHT22;2290;48.674;9.018;2023-04-24T08:42:20;10.70;99.90
4556;DHT22;2290;48.674;9.018;2023-04-24T08:44:47;10.50;99.90
4556;DHT22;2290;48.674;9.018;2023-04-24T08:47:14;10.50;99.90
4556;DHT22;2290;48.674;9.018;2023-04-24T08:49:40;10.80;99.90
4556;DHT22;2290;48.674;9.018;2023-04-24T08:52:06;10.90;99.90
4556;DHT22;2290;48.674;9.018;2023-04-24T08:54:34;10.90;99.90
4556;DHT22;2290;48.674;9.018;2023-04-24T08:57:02;10.70;99.90
4556;DHT22;2290;48.674;9.018;2023-04-24T08:59:30;10.60;99.90
4556;DHT22;2290;48.674;9.018;2023-04-24T09:01:56;10.70;99.90
4556;DHT22;2290;48.674;9.018;2023-04-24T09:04:23;10.80;99.90
4556;DHT22;2290;48.674;9.018;2023-04-24T09:06:57;10.80;99.90
4556;DHT22;2290;48.674;9.018;2023-04-24T09:09:24;10.90;99.90
4556;DHT22;2290;48.674;9.018;2023-04-24T09:11:51;10.90;99.90
4556;DHT22;2290;48.674;9.018;2023-04-24T09:14:19;10.80;99.90
4556;DHT22;2290;48.674;9.018;2023-04-24T09:16:45;10.90;99.90
4556;DHT22;2290;48.674;9.018;2023-04-24T09:19:11;11.00;99.90
4556;DHT22;2290;48.674;9.018;2023-04-24T09:21:37;11.30;99.90
4556;DHT22;2290;48.674;9.018;2023-04-24T09:24:18;11.60;99.90
4556;DHT22;2290;48.674;9.018;2023-04-24T09:26:45;11.50;99.90
4556;DHT22;2290;48.674;9.018;2023-04-24T09:29:17;11.30;99.90
4556;DHT22;2290;48.674;9.018;2023-04-24T09:31:44;11.00;99.90
4556;DHT22;2290;48.674;9.018;2023-04-24T09:34:10;11.10;99.90
4556;DHT22;2290;48.674;9.018;2023-04-24T09:36:40;11.10;99.90
4556;DHT22;2290;48.674;9.018;2023-04-24T09:39:10;11.30;99.90
4556;DHT22;2290;48.674;9.018;2023-04-24T09:41:46;11.70;99.90
4556;DHT22;2290;48.674;9.018;2023-04-24T09:44:14;12.00;99.90
4556;DHT22;2290;48.674;9.018;2023-04-24T09:46:41;11.90;99.90
4556;DHT22;2290;48.674;9.018;2023-04-24T09:49:09;11.90;99.90
4556;DHT22;2290;48.674;9.018;2023-04-24T09:51:36;12.10;99.90
4556;DHT22;2290;48.674;9.018;2023-04-24T09:54:04;12.10;99.90
4556;DHT22;2290;48.674;9.018;2023-04-24T09:56:32;11.80;99.90
4556;DHT22;2290;48.674;9.018;2023-04-24T09:59:08;11.70;99.90
4556;DHT22;2290;48.674;9.018;2023-04-24T10:01:34;11.70;99.90
4556;DHT22;2290;48.674;9.018;2023-04-24T10:04:01;11.60;99.90
4556;DHT22;2290;48.674;9.018;2023-04-24T10:06:50;11.70;99.90
4556;DHT22;2290;48.674;9.018;2023-04-24T10:09:18;11.80;99.90
4556;DHT22;2290;48.674;9.018;2023-04-24T10:11:48;11.50;99.90
4556;DHT22;2290;48.674;9.018;2023-04-24T10:14:19;11.40;99.90
4556;DHT22;2290;48.674;9.018;2023-04-24T10:16:46;11.50;99.90
4556;DHT22;2290;48.674;9.018;2023-04-24T10:19:13;11.70;99.90
4556;DHT22;2290;48.674;9.018;2023-04-24T10:21:41;11.80;99.90
4556;DHT22;2290;48.674;9.018;2023-04-24T10:24:08;11.80;99.90
4556;DHT22;2290;48.674;9.018;2023-04-24T10:26:34;11.70;99.90
4556;DHT22;2290;48.674;9.018;2023-04-24T10:29:02;11.50;99.90
4556;DHT22;2290;48.674;9.018;2023-04-24T10:31:31;11.40;99.90
4556;DHT22;2290;48.674;9.018;2023-04-24T10:33:58;11.60;99.90
4556;DHT22;2290;48.674;9.018;2023-04-24T10:36:25;11.70;99.90
4556;DHT22;2290;48.674;9.018;2023-04-24T10:38:56;12.00;99.90
4556;DHT22;2290;48.674;9.018;2023-04-24T10:41:25;12.00;99.90
4556;DHT22;2290;48.674;9.018;2023-04-24T10:44:09;11.80;99.90
4556;DHT22;2290;48.674;9.018;2023-04-24T10:46:37;11.70;99.90
4556;DHT22;2290;48.674;9.018;2023-04-24T10:49:07;11.30;99.90
4556;DHT22;2290;48.674;9.018;2023-04-24T10:51:51;11.20;99.90
4556;DHT22;2290;48.674;9.018;2023-04-24T10:59:48;11.30;99.90
4556;DHT22;2290;48.674;9.018;2023-04-24T11:02:20;11.20;99.90
4556;DHT22;2290;48.674;9.018;2023-04-24T11:05:03;11.40;99.90
4556;DHT22;2290;48.674;9.018;2023-04-24T11:07:29;11.30;99.90
4556;DHT22;2290;48.674;9.018;2023-04-24T11:09:58;11.60;99.90
4556;DHT22;2290;48.674;9.018;2023-04-24T11:12:26;11.90;99.90
4556;DHT22;2290;48.674;9.018;2023-04-24T11:14:59;12.10;99.90
4556;DHT22;2290;48.674;9.018;2023-04-24T11:17:29;12.10;99.90
4556;DHT22;2290;48.674;9.018;2023-04-24T11:20:01;11.80;99.90
4556;DHT22;2290;48.674;9.018;2023-04-24T11:22:28;11.80;99.90
4556;DHT22;2290;48.674;9.018;2023-04-24T11:24:56;11.70;99.90
4556;DHT22;2290;48.674;9.018;2023-04-24T11:27:38;11.60;99.90
4556;DHT22;2290;48.674;9.018;2023-04-24T11:30:04;11.20;99.90
4556;DHT22;2290;48.674;9.018;2023-04-24T11:35:17;11.00;99.90
4556;DHT22;2290;48.674;9.018;2023-04-24T11:37:48;11.20;99.90
4556;DHT22;2290;48.674;9.018;2023-04-24T11:40:16;11.20;99.90
4556;DHT22;2290;48.674;9.018;2023-04-24T11:42:44;11.20;99.90
4556;DHT22;2290;48.674;9.018;2023-04-24T11:45:12;11.00;99.90
4556;DHT22;2290;48.674;9.018;2023-04-24T11:47:39;11.20;99.90
4556;DHT22;2290;48.674;9.018;2023-04-24T11:50:12;11.10;99.90
4556;DHT22;2290;48.674;9.018;2023-04-24T11:52:43;11.20;99.90
4556;DHT22;2290;48.674;9.018;2023-04-24T11:57:44;11.10;99.90
4556;DHT22;2290;48.674;9.018;2023-04-24T12:00:28;11.20;99.90
4556;DHT22;2290;48.674;9.018;2023-04-24T12:03:10;11.20;99.90
4556;DHT22;2290;48.674;9.018;2023-04-24T12:05:38;11.10;99.90
4556;DHT22;2290;48.674;9.018;2023-04-24T12:08:04;11.00;99.90
4556;DHT22;2290;48.674;9.018;2023-04-24T12:10:31;10.80;99.90
4556;DHT22;2290;48.674;9.018;2023-04-24T12:12:59;10.90;99.90
4556;DHT22;2290;48.674;9.018;2023-04-24T12:15:26;11.10;99.90
4556;DHT22;2290;48.674;9.018;2023-04-24T12:17:55;11.30;99.90
4556;DHT22;2290;48.674;9.018;2023-04-24T12:20:29;11.50;99.90
4556;DHT22;2290;48.674;9.018;2023-04-24T12:23:00;11.50;99.90
4556;DHT22;2290;48.674;9.018;2023-04-24T12:25:33;11.50;99.90
4556;DHT22;2290;48.674;9.018;2023-04-24T12:30:34;11.30;99.90
4556;DHT22;2290;48.674;9.018;2023-04-24T12:33:03;11.20;99.90
4556;DHT22;2290;48.674;9.018;2023-04-24T12:35:30;11.30;99.90
4556;DHT22;2290;48.674;9.018;2023-04-24T12:38:06;11.40;99.90
4556;DHT22;2290;48.674;9.018;2023-04-24T12:40:32;11.60;99.90
4556;DHT22;2290;48.674;9.018;2023-04-24T12:42:58;11.60;99.90
4556;DHT22;2290;48.674;9.018;2023-04-24T12:45:23;11.80;99.90
4556;DHT22;2290;48.674;9.018;2023-04-24T12:47:51;11.80;99.90
4556;DHT22;2290;48.674;9.018;2023-04-24T12:50:17;11.60;99.90
4556;DHT22;2290;48.674;9.018;2023-04-24T12:52:44;11.40;99.90
4556;DHT22;2290;48.674;9.018;2023-04-24T12:55:10;11.10;99.90
4556;DHT22;2290;48.674;9.018;2023-04-24T12:57:38;11.00;99.90
4556;DHT22;2290;48.674;9.018;2023-04-24T13:00:05;11.10;99.90
4556;DHT22;2290;48.674;9.018;2023-04-24T13:02:33;11.00;99.90
4556;DHT22;2290;48.674;9.018;2023-04-24T13:05:00;11.00;99.90
4556;DHT22;2290;48.674;9.018;2023-04-24T13:07:27;11.20;99.90
4556;DHT22;2290;48.674;9.018;2023-04-24T13:09:55;11.10;99.90
4556;DHT22;2290;48.674;9.018;2023-04-24T13:12:21;11.00;99.90
4556;DHT22;2290;48.674;9.018;2023-04-24T13:14:49;11.00;99.90
4556;DHT22;2290;48.674;9.018;2023-04-24T13:17:16;11.00;99.90
4556;DHT22;2290;48.674;9.018;2023-04-24T13:19:44;11.00;99.90
4556;DHT22;2290;48.674;9.018;2023-04-24T13:22:11;10.90;99.90
4556;DHT22;2290;48.674;9.018;2023-04-24T13:24:38;10.70;99.90
4556;DHT22;2290;48.674;9.018;2023-04-24T13:27:06;10.70;99.90
4556;DHT22;2290;48.674;9.018;2023-04-24T13:29:33;10.70;99.90
4556;DHT22;2290;48.674;9.018;2023-04-24T13:31:59;10.70;99.90
4556;DHT22;2290;48.674;9.018;2023-04-24T13:34:27;10.50;99.90
4556;DHT22;2290;48.674;9.018;2023-04-24T13:36:56;10.50;99.90
4556;DHT22;2290;48.674;9.018;2023-04-24T13:39:23;10.40;99.90
4556;DHT22;2290;48.674;9.018;2023-04-24T13:41:52;10.40;99.90
4556;DHT22;2290;48.674;9.018;2023-04-24T13:44:19;10.40;99.90
4556;DHT22;2290;48.674;9.018;2023-04-24T13:46:47;10.40;99.90
4556;DHT22;2290;48.674;9.018;2023-04-24T13:49:14;10.50;99.90
4556;DHT22;2290;48.674;9.018;2023-04-24T13:51:41;10.80;99.90
4556;DHT22;2290;48.674;9.018;2023-04-24T13:54:07;10.90;99.90
4556;DHT22;2290;48.674;9.018;2023-04-24T13:56:33;11.00;99.90
4556;DHT22;2290;48.674;9.018;2023-04-24T13:58:58;11.10;99.90
4556;DHT22;2290;48.674;9.018;2023-04-24T14:01:24;11.10;99.90
4556;DHT22;2290;48.674;9.018;2023-04-24T14:03:51;11.00;99.90
4556;DHT22;2290;48.674;9.018;2023-04-24T14:06:18;11.00;99.90
4556;DHT22;2290;48.674;9.018;2023-04-24T14:08:43;11.00;99.90
4556;DHT22;2290;48.674;9.018;2023-04-24T14:11:09;10.90;99.90
4556;DHT22;2290;48.674;9.018;2023-04-24T14:13:40;10.70;99.90
4556;DHT22;2290;48.674;9.018;2023-04-24T14:16:06;10.70;99.90
4556;DHT22;2290;48.674;9.018;2023-04-24T14:18:31;10.70;99.90
4556;DHT22;2290;48.674;9.018;2023-04-24T14:20:58;10.70;99.90
4556;DHT22;2290;48.674;9.018;2023-04-24T14:23:24;10.70;99.90
4556;DHT22;2290;48.674;9.018;2023-04-24T14:25:51;10.70;99.90
4556;DHT22;2290;48.674;9.018;2023-04-24T14:28:19;10.80;99.90
4556;DHT22;2290;48.674;9.018;2023-04-24T14:30:45;10.90;99.90
4556;DHT22;2290;48.674;9.018;2023-04-24T14:33:11;11.00;99.90
4556;DHT22;2290;48.674;9.018;2023-04-24T14:35:38;11.40;99.90
4556;DHT22;2290;48.674;9.018;2023-04-24T14:38:04;11.70;99.90
4556;DHT22;2290;48.674;9.018;2023-04-24T14:40:31;12.00;99.90
4556;DHT22;2290;48.674;9.018;2023-04-24T14:42:58;12.10;99.90
4556;DHT22;2290;48.674;9.018;2023-04-24T14:45:24;12.30;99.90
4556;DHT22;2290;48.674;9.018;2023-04-24T14:47:51;12.40;99.90
4556;DHT22;2290;48.674;9.018;2023-04-24T14:50:16;12.60;99.90
4556;DHT22;2290;48.674;9.018;2023-04-24T14:52:43;13.10;99.90
4556;DHT22;2290;48.674;9.018;2023-04-24T14:55:10;13.20;99.90
4556;DHT22;2290;48.674;9.018;2023-04-24T14:57:36;13.20;99.90
4556;DHT22;2290;48.674;9.018;2023-04-24T15:00:05;13.10;99.90
4556;DHT22;2290;48.674;9.018;2023-04-24T15:02:35;12.70;99.90
4556;DHT22;2290;48.674;9.018;2023-04-24T15:05:03;12.60;99.90
4556;DHT22;2290;48.674;9.018;2023-04-24T15:07:29;12.20;99.90
4556;DHT22;2290;48.674;9.018;2023-04-24T15:09:56;12.30;99.90
4556;DHT22;2290;48.674;9.018;2023-04-24T15:12:22;12.00;99.90
4556;DHT22;2290;48.674;9.018;2023-04-24T15:14:47;12.00;99.90
4556;DHT22;2290;48.674;9.018;2023-04-24T15:17:13;12.00;99.90
4556;DHT22;2290;48.674;9.018;2023-04-24T15:19:40;11.80;99.90
4556;DHT22;2290;48.674;9.018;2023-04-24T15:22:05;11.50;99.90
4556;DHT22;2290;48.674;9.018;2023-04-24T15:24:31;11.30;99.90
4556;DHT22;2290;48.674;9.018;2023-04-24T15:26:56;11.30;99.90
4556;DHT22;2290;48.674;9.018;2023-04-24T15:29:22;11.40;99.90
4556;DHT22;2290;48.674;9.018;2023-04-24T15:31:48;11.20;99.90
4556;DHT22;2290;48.674;9.018;2023-04-24T15:34:13;11.10;99.90
4556;DHT22;2290;48.674;9.018;2023-04-24T15:36:39;11.10;99.90
4556;DHT22;2290;48.674;9.018;2023-04-24T15:39:05;11.10;99.90
4556;DHT22;2290;48.674;9.018;2023-04-24T15:41:30;11.20;99.90
4556;DHT22;2290;48.674;9.018;2023-04-24T15:43:57;11.20;99.90
4556;DHT22;2290;48.674;9.018;2023-04-24T15:46:23;11.20;99.90
4556;DHT22;2290;48.674;9.018;2023-04-24T15:48:49;11.30;99.90
4556;DHT22;2290;48.674;9.018;2023-04-24T15:51:14;11.40;99.90
4556;DHT22;2290;48.674;9.018;2023-04-24T15:53:40;11.70;99.90
4556;DHT22;2290;48.674;9.018;2023-04-24T15:56:06;11.90;99.90
4556;DHT22;2290;48.674;9.018;2023-04-24T16:11:29;12.40;99.90
4556;DHT22;2290;48.674;9.018;2023-04-24T16:14:35;12.20;99.90
4556;DHT22;2290;48.674;9.018;2023-04-24T16:18:16;12.10;99.90
4556;DHT22;2290;48.674;9.018;2023-04-24T16:21:55;12.20;99.90
4556;DHT22;2290;48.674;9.018;2023-04-24T16:25:10;12.10;99.90
4556;DHT22;2290;48.674;9.018;2023-04-24T16:28:52;12.00;99.90
4556;DHT22;2290;48.674;9.018;2023-04-24T16:36:15;11.60;99.90